Time;durP1;ratioP1;P1;durP2;ratioP2;P2;SDS_P1;SDS_P2;PMS_P1;PMS_P2;Temp;Humidity;BMP_temperature;BMP_pressure;BME280_temperature;BME280_humidity;BME280_pressure;Samples;Min_cycle;Max_cycle;Signal;HPM_P1;HPM_P2
2022/02/01 00:03:32;;;;;;;14.57;2.95;;;4.30;99.20;;;;;;5074333;28;20473;-70
2022/02/01 00:08:52;;;;;;;20.85;3.97;;;4.40;99.90;;;;;;5074395;28;20090;-70
2022/02/01 00:11:34;;;;;;;15.13;3.60;;;4.40;99.90;;;;;;5075046;28;20068;-70
2022/02/01 00:33:42;;;;;;;23.17;3.13;;;4.50;99.90;;;;;;5074865;28;20052;-70
2022/02/01 00:36:22;;;;;;;15.88;3.10;;;4.40;99.90;;;;;;5074027;28;20386;-70
2022/02/01 00:41:13;;;;;;;20.80;3.63;;;4.40;99.90;;;;;;5073177;28;20048;-70
2022/02/01 00:43:39;;;;;;;12.13;2.40;;;4.40;99.90;;;;;;5073148;28;20040;-70
2022/02/01 00:46:05;;;;;;;15.07;2.50;;;4.50;99.90;;;;;;5074061;28;20036;-70
2022/02/01 00:48:31;;;;;;;11.07;3.55;;;4.50;99.90;;;;;;5074399;28;20076;-70
2022/02/01 00:50:57;;;;;;;11.57;3.10;;;4.50;99.90;;;;;;5074324;28;20430;-70
2022/02/01 00:53:28;;;;;;;11.88;3.15;;;4.50;99.90;;;;;;5073029;28;20077;-70
2022/02/01 00:55:55;;;;;;;11.95;2.80;;;4.50;99.90;;;;;;5073146;28;20104;-70
2022/02/01 00:58:21;;;;;;;15.45;2.88;;;4.50;99.90;;;;;;5074418;28;20036;-70
2022/02/01 01:00:47;;;;;;;9.88;3.05;;;4.50;99.90;;;;;;5072762;28;20049;-70
2022/02/01 01:03:12;;;;;;;12.10;3.17;;;4.40;99.90;;;;;;5073811;28;20042;-70
2022/02/01 01:05:38;;;;;;;18.95;2.75;;;4.50;99.90;;;;;;5073825;28;20032;-70
2022/02/01 01:08:04;;;;;;;17.25;4.28;;;4.50;99.90;;;;;;5072748;28;20102;-70
2022/02/01 01:10:30;;;;;;;13.27;2.45;;;4.50;99.90;;;;;;5074360;28;20045;-70
2022/02/01 01:13:08;;;;;;;13.55;2.17;;;4.50;99.90;;;;;;5074227;28;20055;-70
2022/02/01 01:15:35;;;;;;;18.58;2.88;;;4.50;99.90;;;;;;5072391;28;20435;-70
2022/02/01 01:44:52;;;;;;;12.95;2.88;;;4.60;99.90;;;;;;5073572;28;20048;-70
2022/02/01 01:53:11;;;;;;;12.55;2.65;;;4.60;99.90;;;;;;5073319;28;20040;-70
2022/02/01 01:55:39;;;;;;;12.65;2.20;;;4.60;99.90;;;;;;5072206;28;20044;-70
2022/02/01 01:58:06;;;;;;;20.52;4.00;;;4.60;99.90;;;;;;5073255;28;20476;-70
2022/02/01 02:03:14;;;;;;;11.43;2.53;;;4.60;99.90;;;;;;5073178;28;20044;-70
2022/02/01 02:05:39;;;;;;;19.92;3.10;;;4.50;99.90;;;;;;5054888;28;20116;-70
2022/02/01 02:08:05;;;;;;;13.45;2.75;;;4.60;99.90;;;;;;5073288;28;20076;-70
2022/02/01 02:10:37;;;;;;;11.73;2.70;;;4.60;99.90;;;;;;5072812;28;20376;-70
2022/02/01 02:16:00;;;;;;;11.88;1.98;;;4.60;99.90;;;;;;5071971;28;20036;-70
2022/02/01 02:18:34;;;;;;;10.18;2.35;;;4.60;99.90;;;;;;5073349;28;20044;-70
2022/02/01 02:21:01;;;;;;;11.43;1.80;;;4.60;99.90;;;;;;5072018;28;20048;-70
2022/02/01 02:23:27;;;;;;;13.65;2.33;;;4.60;99.90;;;;;;5073079;28;20038;-70
2022/02/01 02:25:54;;;;;;;15.10;3.25;;;4.70;99.90;;;;;;5072156;28;20528;-70
2022/02/01 02:28:21;;;;;;;13.95;2.53;;;4.70;99.90;;;;;;5074313;28;20047;-70
2022/02/01 02:30:50;;;;;;;14.98;2.42;;;4.60;99.90;;;;;;5076920;28;20048;-70
2022/02/01 02:33:17;;;;;;;10.63;2.58;;;4.60;99.90;;;;;;5075616;28;20491;-70
2022/02/01 02:36:01;;;;;;;18.15;3.30;;;4.60;99.90;;;;;;5075173;28;20037;-70
2022/02/01 02:38:34;;;;;;;13.70;2.75;;;4.60;99.90;;;;;;5075365;28;20512;-70
2022/02/01 02:41:11;;;;;;;14.13;2.80;;;4.70;99.90;;;;;;5076603;28;20037;-70
2022/02/01 02:46:23;;;;;;;13.77;3.95;;;4.70;99.90;;;;;;5075054;28;20048;-70
2022/02/01 02:48:48;;;;;;;12.77;2.60;;;4.80;99.90;;;;;;5076961;28;20036;-70
2022/02/01 02:51:14;;;;;;;14.88;3.25;;;4.80;99.90;;;;;;5075117;28;20454;-70
2022/02/01 02:53:40;;;;;;;11.75;3.05;;;4.80;99.90;;;;;;5076371;28;20051;-70
2022/02/01 02:56:07;;;;;;;14.60;2.33;;;4.80;99.90;;;;;;5076672;28;20028;-70
2022/02/01 02:58:32;;;;;;;16.77;4.40;;;4.90;99.90;;;;;;5075200;28;20115;-70
2022/02/01 03:00:58;;;;;;;16.02;2.10;;;4.90;99.90;;;;;;5076759;28;20044;-70
2022/02/01 03:03:24;;;;;;;6.75;1.77;;;5.00;99.90;;;;;;5076638;28;20044;-70
2022/02/01 03:05:50;;;;;;;12.52;2.13;;;4.90;99.90;;;;;;5076430;28;20036;-70
2022/02/01 03:08:15;;;;;;;15.20;2.35;;;4.90;99.90;;;;;;5076097;28;20040;-70
2022/02/01 03:10:44;;;;;;;8.05;1.80;;;4.90;99.90;;;;;;5074953;28;20536;-70
2022/02/01 03:13:17;;;;;;;13.52;2.15;;;4.90;99.90;;;;;;5075326;28;20423;-70
2022/02/01 03:15:49;;;;;;;8.07;1.90;;;4.90;99.90;;;;;;5076353;28;20119;-70
2022/02/01 03:20:59;;;;;;;7.18;1.42;;;4.80;99.90;;;;;;5075172;28;20135;-70
2022/02/01 03:23:25;;;;;;;10.23;1.55;;;4.80;99.90;;;;;;5076108;28;20552;-70
2022/02/01 03:25:51;;;;;;;9.52;1.65;;;4.70;99.90;;;;;;5075699;28;20036;-70
2022/02/01 03:28:16;;;;;;;5.82;1.90;;;4.70;99.90;;;;;;5074559;28;20048;-70
2022/02/01 03:30:42;;;;;;;10.45;1.63;;;4.70;99.90;;;;;;5075841;28;20115;-70
2022/02/01 03:33:07;;;;;;;6.22;1.38;;;4.70;99.90;;;;;;5076356;28;20489;-70
2022/02/01 03:35:33;;;;;;;7.45;1.20;;;4.70;99.90;;;;;;5075562;28;20055;-70
2022/02/01 03:38:01;;;;;;;6.63;1.20;;;4.60;99.90;;;;;;5075943;28;20041;-70
2022/02/01 03:40:26;;;;;;;8.23;1.08;;;4.60;99.90;;;;;;5074581;28;20036;-70
2022/02/01 03:42:52;;;;;;;5.95;1.02;;;4.60;99.90;;;;;;5074431;28;20056;-70
2022/02/01 03:45:17;;;;;;;7.35;1.08;;;4.60;99.90;;;;;;5075617;28;20042;-70
2022/02/01 03:47:43;;;;;;;3.33;1.17;;;4.40;99.90;;;;;;5075176;28;20052;-70
2022/02/01 03:50:09;;;;;;;6.68;1.08;;;4.40;99.90;;;;;;5075671;28;20040;-70
2022/02/01 03:52:35;;;;;;;5.00;1.20;;;4.30;99.90;;;;;;5075617;28;20036;-70
2022/02/01 03:55:01;;;;;;;7.32;1.13;;;4.40;99.90;;;;;;5075689;28;20408;-70
2022/02/01 03:57:26;;;;;;;7.15;1.35;;;4.30;99.90;;;;;;5075021;28;20123;-70
2022/02/01 03:59:52;;;;;;;7.18;2.05;;;4.20;99.90;;;;;;5075939;28;20044;-70
2022/02/01 04:02:18;;;;;;;6.72;1.88;;;4.30;99.90;;;;;;5074780;28;20048;-70
2022/02/01 04:04:47;;;;;;;6.63;1.10;;;4.30;99.90;;;;;;5075111;28;20036;-70
2022/02/01 04:07:13;;;;;;;5.75;1.58;;;4.30;99.90;;;;;;5074868;28;20036;-70
2022/02/01 04:09:38;;;;;;;8.02;1.50;;;4.30;99.90;;;;;;5073728;28;20086;-70
2022/02/01 04:12:06;;;;;;;4.63;1.20;;;4.30;99.90;;;;;;5075006;28;20032;-70
2022/02/01 04:14:33;;;;;;;16.77;2.42;;;4.30;99.90;;;;;;5073751;28;20037;-70
2022/02/01 04:17:02;;;;;;;5.82;1.35;;;4.30;99.90;;;;;;5074659;28;20131;-71
2022/02/01 04:19:30;;;;;;;10.98;3.05;;;4.40;99.90;;;;;;5074829;28;20408;-70
2022/02/01 04:22:02;;;;;;;10.90;3.00;;;4.40;99.90;;;;;;5075169;28;20060;-70
2022/02/01 04:24:30;;;;;;;12.23;2.25;;;4.40;99.90;;;;;;5075206;28;20079;-70
2022/02/01 04:26:56;;;;;;;9.70;1.88;;;4.40;99.90;;;;;;5073477;28;20484;-70
2022/02/01 04:29:22;;;;;;;8.10;1.90;;;4.50;99.90;;;;;;5075541;28;20093;-70
2022/02/01 04:31:48;;;;;;;7.15;1.70;;;4.50;99.90;;;;;;5075072;28;20549;-70
2022/02/01 04:34:14;;;;;;;6.55;1.60;;;4.50;99.90;;;;;;5074886;28;20060;-70
2022/02/01 04:36:40;;;;;;;13.15;1.67;;;4.50;99.90;;;;;;5072821;28;20080;-70
2022/02/01 04:39:07;;;;;;;9.52;1.65;;;4.50;99.90;;;;;;5056343;28;20475;-70
2022/02/01 04:41:33;;;;;;;7.93;2.08;;;4.50;99.90;;;;;;5074424;28;20044;-70
2022/02/01 04:43:59;;;;;;;7.13;1.73;;;4.50;99.90;;;;;;5074953;28;20044;-70
2022/02/01 04:46:26;;;;;;;9.23;1.92;;;4.60;99.90;;;;;;5072632;28;20106;-70
2022/02/01 04:48:52;;;;;;;9.23;1.77;;;4.60;99.90;;;;;;5074138;28;20047;-70
2022/02/01 04:51:20;;;;;;;11.63;1.75;;;4.60;99.90;;;;;;5074364;28;20044;-70
2022/02/01 04:53:47;;;;;;;9.88;1.60;;;4.50;99.90;;;;;;5074806;28;20115;-70
2022/02/01 04:56:17;;;;;;;7.03;1.75;;;4.60;99.90;;;;;;5073709;28;20043;-70
2022/02/01 04:58:43;;;;;;;7.88;2.75;;;4.60;99.90;;;;;;5072898;28;20531;-70
2022/02/01 05:01:09;;;;;;;10.70;2.55;;;4.50;99.90;;;;;;5074054;28;20164;-70
2022/02/01 05:03:35;;;;;;;10.55;2.55;;;4.50;99.90;;;;;;5074115;28;20060;-70
2022/02/01 05:06:02;;;;;;;6.85;2.13;;;4.50;99.90;;;;;;5072352;28;20394;-70
2022/02/01 05:08:27;;;;;;;14.07;2.17;;;4.50;99.90;;;;;;5072520;28;20044;-70
2022/02/01 05:10:54;;;;;;;9.95;1.70;;;4.50;99.90;;;;;;5073843;28;20041;-70
2022/02/01 05:15:46;;;;;;;11.38;2.65;;;4.50;99.90;;;;;;5073654;28;20051;-70
2022/02/01 05:18:19;;;;;;;12.82;2.72;;;4.50;99.90;;;;;;5074037;28;20041;-70
2022/02/01 05:20:51;;;;;;;13.60;2.05;;;4.50;99.90;;;;;;5074173;28;20155;-70
2022/02/01 05:23:18;;;;;;;8.77;1.58;;;4.60;99.90;;;;;;5074311;28;20036;-70
2022/02/01 05:25:44;;;;;;;10.13;2.13;;;4.60;99.90;;;;;;5072007;28;20093;-70
2022/02/01 05:28:10;;;;;;;15.65;2.22;;;4.60;99.90;;;;;;5072892;28;20434;-70
2022/02/01 05:30:36;;;;;;;12.77;2.47;;;4.60;99.90;;;;;;5072539;28;20119;-70
2022/02/01 05:33:02;;;;;;;13.38;3.00;;;4.60;99.90;;;;;;5072602;28;20049;-70
2022/02/01 05:35:29;;;;;;;13.23;1.90;;;4.60;99.90;;;;;;5073531;28;20044;-70
2022/02/01 05:37:54;;;;;;;15.63;2.97;;;4.60;99.90;;;;;;5073366;28;20374;-70
2022/02/01 05:40:20;;;;;;;9.32;2.55;;;4.60;99.90;;;;;;5072190;28;20036;-70
2022/02/01 05:45:47;;;;;;;13.00;2.15;;;4.60;99.90;;;;;;5071547;28;20040;-70
2022/02/01 05:48:13;;;;;;;10.43;2.22;;;4.70;99.90;;;;;;5067957;28;20051;-70
2022/02/01 05:50:40;;;;;;;9.75;2.53;;;4.70;99.90;;;;;;5073251;28;20033;-71
2022/02/01 05:53:06;;;;;;;12.02;2.55;;;4.80;99.90;;;;;;5073235;28;20429;-70
2022/02/01 05:55:34;;;;;;;11.70;2.13;;;4.80;99.90;;;;;;5073313;28;20392;-71
2022/02/01 05:58:00;;;;;;;12.90;2.40;;;4.80;99.90;;;;;;5073028;28;20102;-70
2022/02/01 06:00:26;;;;;;;9.27;2.25;;;4.80;99.90;;;;;;5074044;28;20123;-70
2022/02/01 06:02:51;;;;;;;10.82;3.65;;;4.80;99.90;;;;;;5073734;28;20246;-70
2022/02/01 06:05:17;;;;;;;10.13;2.83;;;4.90;99.90;;;;;;5079762;28;20032;-70
2022/02/01 06:07:43;;;;;;;9.70;2.20;;;4.80;99.90;;;;;;5078401;28;20044;-70
2022/02/01 06:10:09;;;;;;;11.23;2.55;;;4.90;99.90;;;;;;5078560;28;20093;-70
2022/02/01 06:12:42;;;;;;;12.68;2.50;;;4.90;99.90;;;;;;5078669;28;20036;-70
2022/02/01 06:15:09;;;;;;;18.00;2.67;;;4.90;99.90;;;;;;5079778;28;20041;-70
2022/02/01 06:17:35;;;;;;;14.73;3.53;;;4.90;99.90;;;;;;5078256;28;20115;-70
2022/02/01 06:20:02;;;;;;;14.63;3.17;;;5.00;99.90;;;;;;5079892;28;20502;-70
2022/02/01 06:22:28;;;;;;;17.95;3.40;;;5.00;99.90;;;;;;5079776;28;20051;-70
2022/02/01 06:24:55;;;;;;;13.25;2.70;;;5.10;99.90;;;;;;5079623;28;20037;-70
2022/02/01 06:27:21;;;;;;;17.85;3.83;;;5.10;99.90;;;;;;5077865;28;20051;-70
2022/02/01 06:29:46;;;;;;;20.50;4.38;;;5.20;99.90;;;;;;5078415;28;20127;-70
2022/02/01 06:32:12;;;;;;;14.35;2.80;;;5.20;99.90;;;;;;5079521;28;20044;-70
2022/02/01 06:34:37;;;;;;;17.23;3.67;;;5.20;99.90;;;;;;5079546;28;20116;-70
2022/02/01 06:37:03;;;;;;;16.63;3.00;;;5.20;99.90;;;;;;5078077;28;20048;-70
2022/02/01 06:39:29;;;;;;;12.73;3.00;;;5.30;99.90;;;;;;5079245;28;20084;-70
2022/02/01 06:41:55;;;;;;;23.80;4.38;;;5.30;99.90;;;;;;5078794;28;20072;-70
2022/02/01 06:44:21;;;;;;;16.00;3.83;;;5.30;99.90;;;;;;5078440;28;20070;-70
2022/02/01 06:46:46;;;;;;;16.63;3.22;;;5.20;99.90;;;;;;5079051;28;20045;-70
2022/02/01 06:49:13;;;;;;;13.02;3.28;;;5.40;99.90;;;;;;5079430;28;20428;-71
2022/02/01 06:51:39;;;;;;;15.30;3.75;;;5.30;99.90;;;;;;5079707;28;20048;-71
2022/02/01 06:54:05;;;;;;;15.27;3.55;;;5.30;99.90;;;;;;5079782;28;20036;-71
2022/02/01 06:56:33;;;;;;;20.38;3.97;;;5.40;99.90;;;;;;5077678;28;20548;-71
2022/02/01 06:59:00;;;;;;;18.80;3.88;;;5.30;99.90;;;;;;5080011;28;20079;-70
2022/02/01 07:01:27;;;;;;;24.85;5.75;;;5.30;99.90;;;;;;5078497;28;20032;-71
2022/02/01 07:03:53;;;;;;;15.88;4.50;;;5.40;99.90;;;;;;5078357;28;20044;-71
2022/02/01 07:06:19;;;;;;;18.02;4.53;;;5.40;99.90;;;;;;5079155;28;20086;-71
2022/02/01 07:08:47;;;;;;;21.58;6.07;;;5.40;99.90;;;;;;5078502;28;20036;-71
2022/02/01 07:11:13;;;;;;;19.42;4.80;;;5.30;99.90;;;;;;5078370;28;20051;-71
2022/02/01 07:13:39;;;;;;;23.17;5.55;;;5.40;99.90;;;;;;5078156;28;20032;-71
2022/02/01 07:16:06;;;;;;;21.45;5.00;;;5.30;99.90;;;;;;5074490;28;20043;-71
2022/02/01 07:18:32;;;;;;;22.20;5.30;;;5.30;99.90;;;;;;5075889;28;20381;-71
2022/02/01 07:20:58;;;;;;;19.42;5.57;;;5.30;99.90;;;;;;5075033;28;20090;-71
2022/02/01 07:23:26;;;;;;;26.52;5.75;;;5.30;99.90;;;;;;5085045;28;20036;-71
2022/02/01 07:25:52;;;;;;;24.85;5.50;;;5.30;99.90;;;;;;5084814;28;20044;-71
2022/02/01 07:28:20;;;;;;;20.00;5.72;;;5.30;99.90;;;;;;5082901;28;20381;-71
2022/02/01 07:30:46;;;;;;;15.15;5.57;;;5.20;99.90;;;;;;5087201;28;20430;-71
2022/02/01 07:33:12;;;;;;;28.02;6.47;;;5.20;99.90;;;;;;5095879;28;20128;-71
2022/02/01 07:35:38;;;;;;;28.75;7.63;;;5.20;99.90;;;;;;5095637;28;20547;-71
2022/02/01 07:38:06;;;;;;;21.58;7.78;;;5.30;99.90;;;;;;5095765;28;20082;-71
2022/02/01 07:40:32;;;;;;;19.13;7.03;;;5.30;99.90;;;;;;5095881;28;20040;-71
2022/02/01 07:42:58;;;;;;;27.23;6.68;;;5.30;99.90;;;;;;5096342;28;20032;-71
2022/02/01 07:45:28;;;;;;;17.98;7.50;;;5.30;99.90;;;;;;5095551;28;20127;-72
2022/02/01 07:47:58;;;;;;;17.80;6.50;;;5.30;99.90;;;;;;5094278;28;20054;-71
2022/02/01 07:50:25;;;;;;;13.57;6.28;;;5.20;99.90;;;;;;5095704;28;20032;-71
2022/02/01 07:52:51;;;;;;;23.15;7.93;;;5.30;99.90;;;;;;5095542;28;20154;-71
2022/02/01 07:55:17;;;;;;;19.10;7.20;;;5.30;99.90;;;;;;5094307;28;20119;-71
2022/02/01 07:57:42;;;;;;;22.58;7.88;;;5.30;99.90;;;;;;5094891;28;20036;-71
2022/02/01 08:00:09;;;;;;;25.42;9.35;;;5.30;99.90;;;;;;5094803;28;20460;-71
2022/02/01 08:02:36;;;;;;;18.02;8.15;;;5.40;99.90;;;;;;5094116;28;20068;-71
2022/02/01 08:05:02;;;;;;;18.85;8.60;;;5.40;99.90;;;;;;5093937;28;20542;-71
2022/02/01 08:07:28;;;;;;;22.45;8.80;;;5.40;99.90;;;;;;5093894;28;20509;-71
2022/02/01 08:09:58;;;;;;;22.63;9.32;;;5.50;99.90;;;;;;5076465;28;20127;-71
2022/02/01 08:15:55;;;;;;;13.73;8.63;;;5.50;99.90;;;;;;5087346;28;20044;-71
2022/02/01 08:20:47;;;;;;;15.55;9.25;;;5.50;99.90;;;;;;5093720;28;20036;-71
2022/02/01 08:23:13;;;;;;;16.42;9.75;;;5.50;99.90;;;;;;5095033;28;20341;-71
2022/02/01 08:25:40;;;;;;;16.05;8.27;;;5.60;99.90;;;;;;5094795;28;20066;-71
2022/02/01 08:28:06;;;;;;;19.42;7.95;;;5.60;99.90;;;;;;5093711;28;20044;-71
2022/02/01 08:30:31;;;;;;;15.00;7.78;;;5.60;99.90;;;;;;5095029;28;20101;-71
2022/02/01 08:32:58;;;;;;;12.20;7.38;;;5.70;99.90;;;;;;5095216;28;20040;-71
2022/02/01 08:35:24;;;;;;;15.52;7.85;;;5.70;99.90;;;;;;5076615;28;20561;-72
2022/02/01 08:37:50;;;;;;;14.18;8.55;;;5.60;99.90;;;;;;5081949;28;20124;-71
2022/02/01 08:40:16;;;;;;;11.00;6.75;;;5.70;99.90;;;;;;5074430;28;20115;-71
2022/02/01 08:42:50;;;;;;;13.43;7.60;;;5.70;99.90;;;;;;5074559;28;20044;-71
2022/02/01 08:45:24;;;;;;;12.73;7.80;;;5.80;99.90;;;;;;5074221;28;20051;-71
2022/02/01 08:47:51;;;;;;;11.50;6.53;;;5.70;99.90;;;;;;5073845;28;20502;-71
2022/02/01 08:50:22;;;;;;;12.32;7.18;;;5.80;99.90;;;;;;5056362;28;20473;-71
2022/02/01 08:52:48;;;;;;;11.52;6.72;;;5.80;99.90;;;;;;5074471;28;20063;-71
2022/02/01 08:58:00;;;;;;;11.52;6.82;;;5.80;99.90;;;;;;5073863;28;20094;-71
2022/02/01 09:00:27;;;;;;;9.77;6.03;;;5.90;99.90;;;;;;5074395;28;20111;-70
2022/02/01 09:02:52;;;;;;;10.88;6.07;;;5.90;99.90;;;;;;5073866;28;20044;-71
2022/02/01 09:05:18;;;;;;;7.15;5.45;;;6.00;99.90;;;;;;5074253;28;20040;-71
2022/02/01 09:07:44;;;;;;;10.57;5.80;;;6.00;99.90;;;;;;5073733;28;20043;-70
2022/02/01 09:10:10;;;;;;;8.80;5.60;;;6.00;99.90;;;;;;5074493;28;20063;-71
2022/02/01 09:12:36;;;;;;;9.77;6.28;;;6.00;99.90;;;;;;5072493;28;20492;-71
2022/02/01 09:15:01;;;;;;;7.72;5.18;;;6.10;99.90;;;;;;5074329;28;20041;-71
2022/02/01 09:17:27;;;;;;;8.88;5.90;;;6.10;99.90;;;;;;5073113;28;20052;-71
2022/02/01 09:19:53;;;;;;;7.85;5.50;;;6.10;99.90;;;;;;5073947;28;20075;-71
2022/02/01 09:22:18;;;;;;;8.13;5.75;;;6.20;99.90;;;;;;5073545;28;20111;-72
2022/02/01 09:24:44;;;;;;;8.00;4.78;;;6.20;99.90;;;;;;5073469;28;20476;-71
2022/02/01 09:27:11;;;;;;;8.48;4.63;;;6.30;99.90;;;;;;5073042;28;20384;-71
2022/02/01 09:29:37;;;;;;;8.40;4.22;;;6.30;99.90;;;;;;5072101;28;20040;-71
2022/02/01 09:32:04;;;;;;;6.75;4.55;;;6.30;99.90;;;;;;5073662;28;20044;-71
2022/02/01 09:34:29;;;;;;;6.75;4.60;;;6.30;99.90;;;;;;5073678;28;20085;-71
2022/02/01 09:36:56;;;;;;;7.88;4.93;;;6.40;99.90;;;;;;5071747;28;20061;-71
2022/02/01 09:39:23;;;;;;;6.55;4.03;;;6.40;99.90;;;;;;5073018;28;20120;-71
2022/02/01 09:41:50;;;;;;;6.10;3.53;;;6.50;99.90;;;;;;5074030;28;20165;-71
2022/02/01 09:44:16;;;;;;;5.57;3.25;;;6.60;99.90;;;;;;5072429;28;20086;-71
2022/02/01 09:46:49;;;;;;;5.63;3.10;;;6.60;99.90;;;;;;5073350;28;20044;-71
2022/02/01 09:49:19;;;;;;;7.60;3.40;;;6.70;99.90;;;;;;5072189;28;20119;-72
2022/02/01 09:51:46;;;;;;;6.70;3.88;;;6.70;99.90;;;;;;5073317;28;20048;-71
2022/02/01 09:54:11;;;;;;;4.88;2.92;;;6.70;99.90;;;;;;5072594;28;20040;-71
2022/02/01 09:56:37;;;;;;;4.63;3.13;;;6.80;99.90;;;;;;5071532;28;20606;-71
2022/02/01 09:59:17;;;;;;;4.18;2.85;;;6.80;99.90;;;;;;5073261;28;20432;-71
2022/02/01 10:01:46;;;;;;;4.72;3.08;;;6.80;99.90;;;;;;5073345;28;20083;-72
2022/02/01 10:04:12;;;;;;;4.53;2.30;;;6.90;99.90;;;;;;5073827;28;20076;-71
2022/02/01 10:06:39;;;;;;;4.55;2.65;;;6.90;99.90;;;;;;5070612;28;20115;-71
2022/02/01 10:09:13;;;;;;;4.25;2.40;;;7.00;99.90;;;;;;5062783;28;20043;-71
2022/02/01 10:11:41;;;;;;;3.72;2.50;;;7.00;99.90;;;;;;5078479;28;20097;-71
2022/02/01 10:14:11;;;;;;;4.00;1.80;;;7.00;99.90;;;;;;5081907;28;20443;-71
2022/02/01 10:16:52;;;;;;;4.70;2.55;;;7.10;99.90;;;;;;5083299;28;20069;-71
2022/02/01 10:19:19;;;;;;;4.45;2.13;;;7.10;99.90;;;;;;5089234;28;20043;-71
2022/02/01 10:22:00;;;;;;;4.20;2.28;;;7.20;99.90;;;;;;5093144;28;20032;-71
2022/02/01 10:24:39;;;;;;;3.80;1.88;;;7.20;99.90;;;;;;5092100;28;20446;-71
2022/02/01 10:27:17;;;;;;;6.07;2.20;;;7.20;99.90;;;;;;5074603;28;20097;-71
2022/02/01 10:30:03;;;;;;;5.05;1.98;;;7.30;99.90;;;;;;5091868;28;20052;-71
2022/02/01 10:32:48;;;;;;;3.15;1.60;;;7.40;99.90;;;;;;5093730;28;20032;-71
2022/02/01 10:35:31;;;;;;;4.05;2.05;;;7.40;99.90;;;;;;5091833;28;20040;-71
2022/02/01 10:38:03;;;;;;;4.70;2.10;;;7.50;99.90;;;;;;5092914;28;20118;-70
2022/02/01 10:40:55;;;;;;;3.42;1.60;;;7.50;99.90;;;;;;5092741;28;20036;-70
2022/02/01 10:43:27;;;;;;;2.88;2.00;;;7.50;99.90;;;;;;5093178;28;20044;-71
2022/02/01 10:45:55;;;;;;;4.28;2.13;;;7.50;99.90;;;;;;5093166;28;20500;-71
2022/02/01 10:48:26;;;;;;;3.25;1.98;;;7.50;99.90;;;;;;5093449;28;20044;-71
2022/02/01 10:51:07;;;;;;;3.20;2.00;;;7.60;99.90;;;;;;5085836;28;20102;-71
2022/02/01 10:53:34;;;;;;;6.72;2.20;;;7.60;99.90;;;;;;5063291;28;20059;-71
2022/02/01 10:56:01;;;;;;;4.15;2.10;;;7.70;99.90;;;;;;5064967;28;20400;-71
2022/02/01 10:58:27;;;;;;;5.05;2.75;;;7.70;99.90;;;;;;5080714;28;20041;-70
2022/02/01 11:00:53;;;;;;;4.15;2.13;;;7.70;99.90;;;;;;5076605;28;20411;-71
2022/02/01 11:03:20;;;;;;;6.50;2.25;;;7.70;99.90;;;;;;5076255;28;20073;-71
2022/02/01 11:05:53;;;;;;;7.97;2.25;;;7.80;99.90;;;;;;5075774;28;20040;-71
2022/02/01 11:08:22;;;;;;;6.03;2.40;;;7.80;99.90;;;;;;5075974;28;20050;-71
2022/02/01 11:10:50;;;;;;;5.28;2.90;;;7.90;99.90;;;;;;5074661;28;20492;-71
2022/02/01 11:13:16;;;;;;;5.28;2.92;;;7.90;99.90;;;;;;5075474;28;20507;-71
2022/02/01 11:15:59;;;;;;;4.90;3.20;;;8.00;99.90;;;;;;5074580;28;20041;-71
2022/02/01 11:18:26;;;;;;;7.85;3.08;;;7.90;99.90;;;;;;5075928;28;20049;-71
2022/02/01 11:21:13;;;;;;;9.05;3.20;;;7.90;99.90;;;;;;5076067;28;20055;-71
2022/02/01 11:23:48;;;;;;;6.88;3.03;;;8.00;99.90;;;;;;5075508;28;20044;-71
2022/02/01 11:26:32;;;;;;;8.68;3.38;;;8.10;99.90;;;;;;5075348;28;20036;-71
2022/02/01 11:31:51;;;;;;;7.90;3.10;;;8.00;99.90;;;;;;5076048;28;20037;-70
2022/02/01 11:34:19;;;;;;;10.38;3.17;;;8.10;99.90;;;;;;5076256;28;20476;-70
2022/02/01 11:36:45;;;;;;;6.90;3.28;;;8.10;99.90;;;;;;5075464;28;20040;-70
2022/02/01 11:39:16;;;;;;;8.00;3.60;;;8.20;99.90;;;;;;5074830;28;20053;-70
2022/02/01 11:41:44;;;;;;;12.85;3.55;;;8.10;99.90;;;;;;5073828;28;20089;-70
2022/02/01 11:44:19;;;;;;;10.00;3.70;;;8.10;99.90;;;;;;5073830;28;20397;-70
2022/02/01 11:46:59;;;;;;;9.85;3.92;;;8.20;99.90;;;;;;5073125;28;20500;-71
2022/02/01 11:49:25;;;;;;;11.93;4.25;;;8.10;99.90;;;;;;5074193;28;20056;-71
2022/02/01 11:51:52;;;;;;;12.32;4.97;;;8.20;99.90;;;;;;5075365;28;20033;-70
2022/02/01 11:54:24;;;;;;;12.40;4.85;;;8.20;99.90;;;;;;5075305;28;20500;-71
2022/02/01 11:56:50;;;;;;;12.20;4.30;;;8.20;99.90;;;;;;5074804;28;20044;-71
2022/02/01 11:59:25;;;;;;;13.40;3.90;;;8.10;99.90;;;;;;5073814;28;20036;-71
2022/02/01 12:02:06;;;;;;;12.50;4.22;;;8.20;99.90;;;;;;5073188;28;20049;-71
2022/02/01 12:04:41;;;;;;;12.40;4.18;;;8.20;99.90;;;;;;5075453;28;20036;-71
2022/02/01 12:07:08;;;;;;;9.93;3.63;;;8.20;99.90;;;;;;5074821;28;20127;-71
2022/02/01 12:09:34;;;;;;;13.52;4.60;;;8.30;99.90;;;;;;5073717;28;20054;-71
2022/02/01 12:12:02;;;;;;;12.73;3.45;;;8.30;99.90;;;;;;5074868;28;20119;-70
2022/02/01 12:14:28;;;;;;;8.43;3.53;;;8.30;99.90;;;;;;5075113;28;20449;-70
2022/02/01 12:16:56;;;;;;;15.93;4.20;;;8.40;99.90;;;;;;5074497;28;20044;-71
2022/02/01 12:19:36;;;;;;;11.05;3.80;;;8.40;99.90;;;;;;5074770;28;20076;-71
2022/02/01 12:22:18;;;;;;;10.30;3.45;;;8.40;99.90;;;;;;5075065;28;20171;-70
2022/02/01 12:24:43;;;;;;;12.00;3.72;;;8.50;99.90;;;;;;5073643;28;20044;-71
2022/02/01 12:27:09;;;;;;;9.30;3.60;;;8.40;99.90;;;;;;5074365;28;20041;-70
2022/02/01 12:29:35;;;;;;;17.00;3.92;;;8.40;99.90;;;;;;5073315;28;20508;-71
2022/02/01 12:32:08;;;;;;;16.02;3.92;;;8.40;99.90;;;;;;5073885;28;20052;-71
2022/02/01 12:34:35;;;;;;;16.52;4.32;;;8.50;99.90;;;;;;5074573;28;20508;-71
2022/02/01 12:37:00;;;;;;;20.88;4.88;;;8.60;99.90;;;;;;5074006;28;20128;-71
2022/02/01 12:39:32;;;;;;;23.42;5.72;;;8.60;99.90;;;;;;5074082;28;20127;-71
2022/02/01 12:42:08;;;;;;;22.17;5.57;;;8.60;99.90;;;;;;5074351;28;20555;-71
2022/02/01 12:47:07;;;;;;;20.83;4.75;;;8.80;99.90;;;;;;5072699;28;20045;-70
2022/02/01 12:49:44;;;;;;;16.90;4.10;;;8.70;99.90;;;;;;5072817;28;20052;-71
2022/02/01 12:52:26;;;;;;;23.85;5.78;;;8.80;99.90;;;;;;5074384;28;20076;-71
2022/02/01 12:55:03;;;;;;;18.13;3.70;;;8.80;99.90;;;;;;5072912;28;20058;-71
2022/02/01 12:57:30;;;;;;;24.48;4.30;;;8.80;99.90;;;;;;5073622;28;20127;-71
2022/02/01 13:00:00;;;;;;;20.98;3.83;;;8.80;99.90;;;;;;5074048;28;20484;-71
2022/02/01 13:02:28;;;;;;;21.60;3.13;;;8.80;99.90;;;;;;5074287;28;20032;-71
2022/02/01 13:04:59;;;;;;;33.83;5.53;;;8.90;99.90;;;;;;5073902;28;20489;-70
2022/02/01 13:07:48;;;;;;;23.75;5.35;;;9.00;99.90;;;;;;5073413;28;20559;-71
2022/02/01 13:15:47;;;;;;;30.30;3.90;;;9.00;99.90;;;;;;5072237;28;20049;-71
2022/02/01 13:20:03;;;;;;;25.02;5.38;;;9.00;99.90;;;;;;5072460;28;20416;-71
2022/02/01 13:21:12;;;;;;;22.10;4.80;;;8.90;99.90;;;;;;5072457;28;20044;-71
2022/02/01 13:23:44;;;;;;;22.55;4.82;;;9.00;99.90;;;;;;5072320;28;20044;-71
2022/02/01 13:26:17;;;;;;;29.85;5.07;;;9.00;99.90;;;;;;5073588;28;20405;-71
2022/02/01 13:28:54;;;;;;;26.65;4.93;;;9.00;99.90;;;;;;5072262;28;20048;-71
2022/02/01 13:31:25;;;;;;;29.83;5.78;;;8.90;99.90;;;;;;5073408;28;20047;-71
2022/02/01 13:33:56;;;;;;;21.63;5.50;;;9.00;99.90;;;;;;5072346;28;20048;-71
2022/02/01 13:36:22;;;;;;;27.33;5.97;;;9.00;99.90;;;;;;5073264;28;20133;-71
2022/02/01 13:38:54;;;;;;;25.65;6.15;;;9.00;99.90;;;;;;5071924;28;20046;-71
2022/02/01 13:41:21;;;;;;;29.17;5.45;;;9.10;99.90;;;;;;5072337;28;20043;-71
2022/02/01 13:43:49;;;;;;;20.60;5.03;;;9.00;99.90;;;;;;5073243;28;20048;-71
2022/02/01 13:46:24;;;;;;;23.20;5.07;;;9.00;99.90;;;;;;5073172;28;20040;-71
2022/02/01 13:49:07;;;;;;;22.98;3.95;;;9.00;99.90;;;;;;5072248;28;20559;-71
2022/02/01 13:51:47;;;;;;;24.58;4.97;;;9.10;99.90;;;;;;5072041;28;20072;-71
2022/02/01 13:54:13;;;;;;;25.40;5.70;;;9.00;99.90;;;;;;5073217;28;20481;-71
2022/02/01 13:56:46;;;;;;;22.40;5.30;;;9.10;99.90;;;;;;5071780;28;20113;-71
2022/02/01 13:59:19;;;;;;;30.95;5.40;;;9.10;99.90;;;;;;5071918;28;20508;-71
2022/02/01 14:01:46;;;;;;;25.33;5.40;;;9.10;99.90;;;;;;5073310;28;20392;-71
2022/02/01 14:04:22;;;;;;;28.17;5.10;;;9.10;99.90;;;;;;5073147;28;20123;-71
2022/02/01 14:07:16;;;;;;;23.08;4.78;;;9.00;99.90;;;;;;5072809;28;20469;-71
2022/02/01 14:23:39;;;;;;;28.33;5.10;;;9.20;99.90;;;;;;5073256;28;20037;-71
2022/02/01 14:28:33;;;;;;;23.38;5.20;;;9.20;99.90;;;;;;5075663;28;20054;-72
2022/02/01 14:36:09;;;;;;;28.13;5.75;;;9.10;99.90;;;;;;5075452;28;20135;-71
2022/02/01 14:38:56;;;;;;;26.05;5.38;;;9.10;99.90;;;;;;5075329;28;20054;-72
2022/02/01 14:46:40;;;;;;;30.63;6.78;;;9.00;99.90;;;;;;5075091;28;20094;-71
2022/02/01 14:49:06;;;;;;;32.30;5.78;;;9.10;99.90;;;;;;5075291;28;20040;-72
2022/02/01 14:51:31;;;;;;;26.92;6.75;;;9.10;99.90;;;;;;5076429;28;20204;-72
2022/02/01 14:53:57;;;;;;;23.58;5.38;;;9.00;99.90;;;;;;5075177;28;20040;-72
2022/02/01 14:56:31;;;;;;;31.55;5.82;;;9.10;99.90;;;;;;5074816;28;20044;-72
2022/02/01 15:04:59;;;;;;;31.67;6.43;;;9.10;99.90;;;;;;5076893;28;20147;-70
2022/02/01 15:07:36;;;;;;;38.33;7.13;;;9.30;99.90;;;;;;5076085;28;20040;-70